createdAt,value
2018-06-21T00:01:36.504Z,20.07
2018-06-21T00:04:04.547Z,20.02
2018-06-21T00:06:32.545Z,19.91
2018-06-21T00:09:00.568Z,19.56
2018-06-21T00:11:28.585Z,19.55
2018-06-21T00:13:56.620Z,19.41
2018-06-21T00:16:24.694Z,19.43
2018-06-21T00:18:52.697Z,19.37
2018-06-21T00:21:20.689Z,19.25
2018-06-21T00:23:48.676Z,19.21
2018-06-21T00:26:16.657Z,19.30
2018-06-21T00:28:44.721Z,19.42
2018-06-21T00:31:12.742Z,19.44
2018-06-21T00:33:40.834Z,19.38
2018-06-21T00:36:08.863Z,19.33
2018-06-21T00:38:36.853Z,19.36
2018-06-21T00:41:04.868Z,19.27
2018-06-21T00:43:32.908Z,19.29
2018-06-21T00:46:01.733Z,19.16
2018-06-21T00:48:29.733Z,19.14
2018-06-21T00:50:57.769Z,19.12
2018-06-21T00:53:25.809Z,19.13
2018-06-21T00:56:05.293Z,19.21
2018-06-21T00:58:33.296Z,19.04
2018-06-21T01:01:01.304Z,19.00
2018-06-21T01:03:29.301Z,19.07
2018-06-21T01:05:57.325Z,19.03
2018-06-21T01:08:25.338Z,19.10
2018-06-21T01:10:53.356Z,19.06
2018-06-21T01:13:21.368Z,19.13
2018-06-21T01:15:49.384Z,19.09
2018-06-21T01:18:17.889Z,19.13
2018-06-21T01:20:45.881Z,19.10
2018-06-21T01:23:13.890Z,19.09
2018-06-21T01:25:42.017Z,18.88
2018-06-21T01:28:10.014Z,18.72
2018-06-21T01:30:38.022Z,18.79
2018-06-21T01:33:06.050Z,18.67
2018-06-21T01:35:34.090Z,18.49
2018-06-21T01:38:02.084Z,18.37
2018-06-21T01:40:30.089Z,18.14
2018-06-21T01:42:58.116Z,18.27
2018-06-21T01:45:26.225Z,18.19
2018-06-21T01:47:54.231Z,18.07
2018-06-21T01:50:22.247Z,17.96
2018-06-21T01:52:50.276Z,18.02
2018-06-21T01:55:18.308Z,18.07
2018-06-21T01:57:46.304Z,18.12
2018-06-21T02:00:14.341Z,18.21
2018-06-21T02:02:42.908Z,18.23
2018-06-21T02:05:10.969Z,18.17
2018-06-21T02:07:39.183Z,18.14
2018-06-21T02:10:07.444Z,18.13
2018-06-21T02:12:35.486Z,18.19
2018-06-21T02:15:03.502Z,17.97
2018-06-21T02:17:31.531Z,18.03
2018-06-21T02:19:59.572Z,17.99
2018-06-21T02:22:27.580Z,17.89
2018-06-21T02:24:55.638Z,17.84
2018-06-21T02:27:23.633Z,17.93
2018-06-21T02:29:51.613Z,17.88
2018-06-21T02:32:19.667Z,17.90
2018-06-21T02:34:47.808Z,17.83
2018-06-21T02:37:15.869Z,17.72
2018-06-21T02:39:43.849Z,17.65
2018-06-21T02:42:11.856Z,17.70
2018-06-21T02:44:40.005Z,17.65
2018-06-21T02:47:08.029Z,17.65
2018-06-21T02:49:36.044Z,17.74
2018-06-21T02:52:05.012Z,17.64
2018-06-21T02:54:33.122Z,17.63
2018-06-21T02:57:01.122Z,17.70
2018-06-21T02:59:29.141Z,17.70
2018-06-21T03:01:57.148Z,17.53
2018-06-21T03:04:25.140Z,17.58
2018-06-21T03:06:53.133Z,17.69
2018-06-21T03:09:21.150Z,17.76
2018-06-21T03:11:49.145Z,17.73
2018-06-21T03:14:17.168Z,17.69
2018-06-21T03:16:45.202Z,17.74
2018-06-21T03:19:13.209Z,17.86
2018-06-21T03:21:41.216Z,17.65
2018-06-21T03:24:10.250Z,17.80
2018-06-21T03:26:38.240Z,17.90
2018-06-21T03:29:06.233Z,17.99
2018-06-21T03:31:34.247Z,18.12
2018-06-21T03:34:02.225Z,18.09
2018-06-21T03:36:30.231Z,18.13
2018-06-21T03:38:58.259Z,18.19
2018-06-21T03:41:26.260Z,18.30
2018-06-21T03:43:54.273Z,18.42
2018-06-21T03:46:22.270Z,18.45
2018-06-21T03:48:50.344Z,18.42
2018-06-21T03:51:18.333Z,18.54
2018-06-21T03:53:46.347Z,18.57
2018-06-21T03:56:14.313Z,18.72
2018-06-21T03:58:42.332Z,18.79
2018-06-21T04:03:30.054Z,18.83
2018-06-21T04:05:58.029Z,18.91
2018-06-21T04:08:26.095Z,19.01
2018-06-21T04:10:54.022Z,18.96
2018-06-21T04:13:22.132Z,19.02
2018-06-21T04:15:50.127Z,18.95
2018-06-21T04:18:22.410Z,19.10
2018-06-21T04:20:50.577Z,19.20
2018-06-21T04:23:18.668Z,19.28
2018-06-21T04:25:46.726Z,19.30
2018-06-21T04:28:14.782Z,19.38
2018-06-21T04:30:42.776Z,19.48
2018-06-21T04:33:10.775Z,19.55
2018-06-21T04:35:38.773Z,19.54
2018-06-21T04:38:06.825Z,19.61
2018-06-21T04:40:34.877Z,19.49
2018-06-21T04:43:02.906Z,19.50
2018-06-21T04:45:31.001Z,19.56
2018-06-21T04:47:59.012Z,19.73
2018-06-21T04:50:27.029Z,19.76
2018-06-21T04:52:55.144Z,19.65
2018-06-21T04:55:23.197Z,19.58
2018-06-21T04:57:51.193Z,19.52
2018-06-21T05:00:19.457Z,19.45
2018-06-21T05:02:47.652Z,19.43
2018-06-21T05:05:15.673Z,19.47
2018-06-21T05:07:43.718Z,19.61
2018-06-21T05:10:11.804Z,19.48
2018-06-21T05:12:39.963Z,19.45
2018-06-21T05:15:07.955Z,19.46
2018-06-21T05:17:35.985Z,19.67
2018-06-21T05:20:04.009Z,19.66
2018-06-21T05:22:32.166Z,19.66
2018-06-21T05:25:00.177Z,19.63
2018-06-21T05:27:28.177Z,19.68
2018-06-21T05:29:56.188Z,19.51
2018-06-21T05:32:24.356Z,19.48
2018-06-21T05:34:52.368Z,19.16
2018-06-21T05:37:20.411Z,19.10
2018-06-21T05:39:48.368Z,18.80
2018-06-21T05:42:16.391Z,18.57
2018-06-21T05:44:44.420Z,18.70
2018-06-21T05:47:12.760Z,18.34
2018-06-21T05:49:40.758Z,18.23
2018-06-21T05:52:08.737Z,17.75
2018-06-21T05:54:37.851Z,17.39
2018-06-21T05:57:05.824Z,17.14
2018-06-21T05:59:33.870Z,17.12
2018-06-21T06:02:01.901Z,16.87
2018-06-21T06:04:29.856Z,16.80
2018-06-21T06:06:57.961Z,16.77
2018-06-21T06:09:25.956Z,16.80
2018-06-21T06:11:54.150Z,16.67
2018-06-21T06:14:22.168Z,16.63
2018-06-21T06:16:50.193Z,16.63
2018-06-21T06:19:18.444Z,16.42
2018-06-21T06:21:46.446Z,16.51
2018-06-21T06:24:14.490Z,16.35
2018-06-21T06:26:42.676Z,16.05
2018-06-21T06:29:10.756Z,15.93
2018-06-21T06:31:39.369Z,15.93
2018-06-21T06:34:07.442Z,15.94
2018-06-21T06:36:35.476Z,15.94
2018-06-21T06:39:21.109Z,15.82
2018-06-21T06:41:50.164Z,15.98
2018-06-21T06:44:18.761Z,16.05
2018-06-21T06:46:46.801Z,16.11
2018-06-21T06:49:14.773Z,16.23
2018-06-21T06:51:42.772Z,16.22
2018-06-21T06:54:11.660Z,16.16
2018-06-21T06:56:39.849Z,16.14
2018-06-21T06:59:07.845Z,16.16
2018-06-21T07:01:35.846Z,16.06
2018-06-21T07:04:03.929Z,16.07
2018-06-21T07:06:31.908Z,16.09
2018-06-21T07:08:59.884Z,16.16
2018-06-21T07:11:28.792Z,16.23
2018-06-21T07:13:57.757Z,16.27
2018-06-21T07:16:26.181Z,16.36
2018-06-21T07:18:54.179Z,16.59
2018-06-21T07:21:22.276Z,16.71
2018-06-21T07:23:50.441Z,16.86
2018-06-21T07:26:18.457Z,16.88
2018-06-21T07:28:46.582Z,16.84
2018-06-21T07:31:14.600Z,16.60
2018-06-21T07:33:42.584Z,16.85
2018-06-21T07:36:10.621Z,16.87
2018-06-21T07:38:38.650Z,17.06
2018-06-21T07:41:06.702Z,16.89
2018-06-21T07:43:34.698Z,16.93
2018-06-21T07:46:02.729Z,16.91
2018-06-21T07:48:30.724Z,16.88
2018-06-21T07:50:58.744Z,16.94
2018-06-21T07:53:26.833Z,16.71
2018-06-21T07:55:54.821Z,16.85
2018-06-21T07:58:22.857Z,16.88
2018-06-21T08:00:50.844Z,16.70
2018-06-21T08:03:18.845Z,16.72
2018-06-21T08:05:46.849Z,16.78
2018-06-21T08:08:14.887Z,16.93
2018-06-21T08:10:42.907Z,16.92
2018-06-21T08:13:11.048Z,17.14
2018-06-21T08:15:39.040Z,17.40
2018-06-21T08:18:07.076Z,17.51
2018-06-21T08:20:35.101Z,17.52
2018-06-21T08:23:03.572Z,17.50
2018-06-21T08:25:31.544Z,17.56
2018-06-21T08:27:59.648Z,17.63
2018-06-21T08:30:27.769Z,17.67
2018-06-21T08:32:55.789Z,17.70
2018-06-21T08:35:23.817Z,17.89
2018-06-21T08:37:51.841Z,18.15
2018-06-21T08:40:19.841Z,18.25
2018-06-21T08:42:47.857Z,18.19
2018-06-21T08:45:15.844Z,18.40
2018-06-21T08:47:43.829Z,18.30
2018-06-21T08:50:11.988Z,18.50
2018-06-21T08:52:39.997Z,18.67
2018-06-21T08:55:08.025Z,18.76
2018-06-21T08:57:36.016Z,18.79
2018-06-21T09:00:04.513Z,18.92
2018-06-21T09:02:33.803Z,18.80
2018-06-21T09:05:01.834Z,19.02
2018-06-21T09:07:29.826Z,19.22
2018-06-21T09:09:57.813Z,19.12
2018-06-21T09:12:30.022Z,19.01
2018-06-21T09:14:59.088Z,18.82
2018-06-21T09:17:27.116Z,18.73
2018-06-21T09:19:55.192Z,19.01
2018-06-21T09:22:23.213Z,19.06
2018-06-21T09:24:51.270Z,19.26
2018-06-21T09:27:19.317Z,19.41
2018-06-21T09:29:47.720Z,19.51
2018-06-21T09:32:15.973Z,19.51
2018-06-21T09:34:43.977Z,19.62
2018-06-21T09:37:11.992Z,19.48
2018-06-21T09:39:45.395Z,19.43
2018-06-21T09:42:18.857Z,19.51
2018-06-21T09:44:52.381Z,19.23
2018-06-21T09:47:25.790Z,18.90
2018-06-21T09:49:53.812Z,18.97
2018-06-21T09:52:21.823Z,18.62
2018-06-21T09:54:49.956Z,18.75
2018-06-21T09:57:18.012Z,18.74
2018-06-21T09:59:46.033Z,18.67
2018-06-21T10:02:14.033Z,18.38
2018-06-21T10:04:42.050Z,18.65
2018-06-21T10:07:10.176Z,18.60
2018-06-21T10:09:38.261Z,18.87
2018-06-21T10:12:06.677Z,18.36
2018-06-21T10:14:34.681Z,18.37
2018-06-21T10:17:02.844Z,18.57
2018-06-21T10:19:30.905Z,18.89
2018-06-21T10:21:58.916Z,18.98
2018-06-21T10:24:26.912Z,19.14
2018-06-21T10:26:54.904Z,19.50
2018-06-21T10:29:22.920Z,19.32
2018-06-21T10:31:50.906Z,19.03
2018-06-21T10:34:18.919Z,18.27
2018-06-21T10:36:46.929Z,16.14
2018-06-21T10:39:14.937Z,14.95
2018-06-21T10:41:42.948Z,14.25
2018-06-21T10:44:11.886Z,13.84
2018-06-21T10:46:39.867Z,13.48
2018-06-21T10:49:07.906Z,13.49
2018-06-21T10:51:36.016Z,13.36
2018-06-21T10:54:04.253Z,13.33
2018-06-21T10:56:32.516Z,13.45
2018-06-21T10:59:00.519Z,13.45
2018-06-21T11:01:28.822Z,13.55
2018-06-21T11:03:56.805Z,13.93
2018-06-21T11:06:25.285Z,14.02
2018-06-21T11:08:53.284Z,14.25
2018-06-21T11:11:21.272Z,14.56
2018-06-21T11:13:49.301Z,14.88
2018-06-21T11:16:17.269Z,15.34
2018-06-21T11:18:45.277Z,15.64
2018-06-21T11:21:13.269Z,16.01
2018-06-21T11:23:41.261Z,16.46
2018-06-21T11:26:09.260Z,16.59
2018-06-21T11:28:37.340Z,17.22
2018-06-21T11:31:05.307Z,17.63
2018-06-21T11:33:33.308Z,17.58
2018-06-21T11:36:01.305Z,17.31
2018-06-21T11:38:29.340Z,17.43
2018-06-21T11:40:58.347Z,17.64
2018-06-21T11:43:26.340Z,17.64
2018-06-21T11:45:54.333Z,17.43
2018-06-21T11:48:22.369Z,16.98
2018-06-21T11:50:50.365Z,16.53
2018-06-21T11:53:18.402Z,16.17
2018-06-21T11:55:46.393Z,15.76
2018-06-21T11:58:14.418Z,15.39
2018-06-21T12:00:42.436Z,15.49
2018-06-21T12:03:10.434Z,15.53
2018-06-21T12:05:38.460Z,15.46
2018-06-21T12:08:06.465Z,15.70
2018-06-21T12:10:34.464Z,15.79
2018-06-21T12:13:02.492Z,15.77
2018-06-21T12:15:30.556Z,16.02
2018-06-21T12:17:58.548Z,16.41
2018-06-21T12:20:26.550Z,16.57
2018-06-21T12:22:54.673Z,16.54
2018-06-21T12:25:22.676Z,16.70
2018-06-21T12:27:50.853Z,16.51
2018-06-21T12:30:18.893Z,16.67
2018-06-21T12:32:46.884Z,16.84
2018-06-21T12:35:14.925Z,16.89
2018-06-21T12:37:42.942Z,16.69
2018-06-21T12:40:10.948Z,16.92
2018-06-21T12:42:39.044Z,17.23
2018-06-21T12:45:07.033Z,17.70
2018-06-21T12:47:35.026Z,18.15
2018-06-21T12:50:03.061Z,18.33
2018-06-21T12:52:31.200Z,18.59
2018-06-21T12:54:59.213Z,18.44
2018-06-21T12:57:27.255Z,18.65
2018-06-21T12:59:55.309Z,18.64
2018-06-21T13:02:23.301Z,17.89
2018-06-21T13:04:51.305Z,17.53
2018-06-21T13:07:19.369Z,17.74
2018-06-21T13:09:58.953Z,18.03
2018-06-21T13:12:39.473Z,18.26
2018-06-21T13:15:07.596Z,18.40
2018-06-21T13:17:35.635Z,17.89
2018-06-21T13:20:04.825Z,17.99
2018-06-21T13:22:32.820Z,17.63
2018-06-21T13:25:00.809Z,17.28
2018-06-21T13:27:28.820Z,16.98
2018-06-21T13:29:56.995Z,16.48
2018-06-21T13:32:24.986Z,16.16
2018-06-21T13:34:53.073Z,16.29
2018-06-21T13:37:21.033Z,16.63
2018-06-21T13:39:49.032Z,16.91
2018-06-21T13:42:17.034Z,17.03
2018-06-21T13:44:45.139Z,17.32
2018-06-21T13:47:13.124Z,17.44
2018-06-21T13:49:41.252Z,17.40
2018-06-21T13:52:09.252Z,17.60
2018-06-21T13:54:37.284Z,17.55
2018-06-21T13:57:05.361Z,17.18
2018-06-21T13:59:33.384Z,16.75
2018-06-21T14:02:01.417Z,16.45
2018-06-21T14:04:29.434Z,16.50
2018-06-21T14:06:57.464Z,16.91
2018-06-21T14:09:25.496Z,17.16
2018-06-21T14:11:53.589Z,17.43
2018-06-21T14:14:21.609Z,17.75
2018-06-21T14:16:49.724Z,18.08
2018-06-21T14:19:17.725Z,18.10
2018-06-21T14:21:45.750Z,17.94
2018-06-21T14:24:15.032Z,17.68
2018-06-21T14:26:43.453Z,17.08
2018-06-21T14:29:11.465Z,16.55
2018-06-21T14:31:39.470Z,16.12
2018-06-21T14:34:07.444Z,16.08
2018-06-21T14:36:35.541Z,16.54
2018-06-21T14:39:04.762Z,16.40
2018-06-21T14:41:32.778Z,16.48
2018-06-21T14:44:01.286Z,16.35
2018-06-21T14:46:29.281Z,16.51
2018-06-21T14:48:57.350Z,16.36
2018-06-21T14:51:25.345Z,16.47
2018-06-21T14:53:53.590Z,16.39
2018-06-21T14:56:21.593Z,16.74
2018-06-21T14:58:49.569Z,16.87
2018-06-21T15:01:17.631Z,16.70
2018-06-21T15:03:45.657Z,16.34
2018-06-21T15:06:13.692Z,15.73
2018-06-21T15:08:41.760Z,14.68
2018-06-21T15:11:09.822Z,14.09
2018-06-21T15:13:37.785Z,14.20
2018-06-21T15:16:05.782Z,14.18
2018-06-21T15:18:34.936Z,14.51
2018-06-21T15:21:02.969Z,14.52
2018-06-21T15:23:30.947Z,14.66
2018-06-21T15:25:59.188Z,14.95
2018-06-21T15:28:27.173Z,15.10
2018-06-21T15:30:55.157Z,15.32
2018-06-21T15:33:23.157Z,15.39
2018-06-21T15:35:51.261Z,15.45
2018-06-21T15:38:19.993Z,15.63
2018-06-21T15:40:48.025Z,15.84
2018-06-21T15:43:16.109Z,15.89
2018-06-21T15:45:44.097Z,16.03
2018-06-21T15:48:12.100Z,15.65
2018-06-21T15:50:40.096Z,15.70
2018-06-21T15:53:08.138Z,16.15
2018-06-21T15:55:36.159Z,16.24
2018-06-21T15:58:04.301Z,16.05
2018-06-21T16:00:32.376Z,16.00
2018-06-21T16:03:00.540Z,15.99
2018-06-21T16:05:28.562Z,15.87
2018-06-21T16:07:56.568Z,15.40
2018-06-21T16:10:24.804Z,15.17
2018-06-21T16:12:52.846Z,15.36
2018-06-21T16:15:20.949Z,15.72
2018-06-21T16:17:48.900Z,15.88
2018-06-21T16:20:16.888Z,16.16
2018-06-21T16:22:44.905Z,16.11
2018-06-21T16:25:12.924Z,16.14
2018-06-21T16:27:41.104Z,16.16
2018-06-21T16:30:09.097Z,16.27
2018-06-21T16:32:37.096Z,16.20
2018-06-21T16:35:05.085Z,15.90
2018-06-21T16:37:33.099Z,15.99
2018-06-21T16:40:01.816Z,15.98
2018-06-21T16:42:29.947Z,16.00
2018-06-21T16:44:57.929Z,15.99
2018-06-21T16:47:25.937Z,16.31
2018-06-21T16:49:53.951Z,16.33
2018-06-21T16:52:21.944Z,16.55
2018-06-21T16:54:50.064Z,16.27
2018-06-21T16:57:18.037Z,16.46
2018-06-21T16:59:46.082Z,16.58
2018-06-21T17:02:14.159Z,16.63
2018-06-21T17:04:42.168Z,16.72
2018-06-21T17:07:10.177Z,17.09
2018-06-21T17:09:38.285Z,17.25
2018-06-21T17:12:06.293Z,17.26
2018-06-21T17:14:34.308Z,16.99
2018-06-21T17:17:02.367Z,16.62
2018-06-21T17:19:30.419Z,16.48
2018-06-21T17:21:58.413Z,16.49
2018-06-21T17:24:26.702Z,16.26
2018-06-21T17:26:54.712Z,15.81
2018-06-21T17:29:22.793Z,15.66
2018-06-21T17:31:50.812Z,15.82
2018-06-21T17:34:19.226Z,15.68
2018-06-21T17:36:47.307Z,15.63
2018-06-21T17:39:15.368Z,15.71
2018-06-21T17:41:43.408Z,15.59
2018-06-21T17:44:11.517Z,15.43
2018-06-21T17:46:39.546Z,15.61
2018-06-21T17:49:07.711Z,15.57
2018-06-21T17:51:35.745Z,15.51
2018-06-21T17:54:03.977Z,15.19
2018-06-21T17:56:31.995Z,15.25
2018-06-21T17:59:00.013Z,15.40
2018-06-21T18:01:28.021Z,15.37
2018-06-21T18:03:56.015Z,15.26
2018-06-21T18:06:24.115Z,15.34
2018-06-21T18:08:52.141Z,15.23
2018-06-21T18:11:20.226Z,15.23
2018-06-21T18:13:48.536Z,15.17
2018-06-21T18:16:16.524Z,14.79
2018-06-21T18:18:44.705Z,14.61
2018-06-21T18:21:12.756Z,14.50
2018-06-21T18:23:40.898Z,14.45
2018-06-21T18:26:08.928Z,14.28
2018-06-21T18:28:36.890Z,14.20
2018-06-21T18:31:04.917Z,13.88
2018-06-21T18:33:32.913Z,13.67
2018-06-21T18:36:00.896Z,13.84
2018-06-21T18:38:29.047Z,13.85
2018-06-21T18:40:57.124Z,13.72
2018-06-21T18:43:25.118Z,13.76
2018-06-21T18:45:53.084Z,13.72
2018-06-21T18:48:21.079Z,13.74
2018-06-21T18:50:49.117Z,13.66
2018-06-21T18:53:17.189Z,13.56
2018-06-21T18:55:45.445Z,13.73
2018-06-21T18:58:13.445Z,13.59
2018-06-21T19:00:41.433Z,13.71
2018-06-21T19:03:09.413Z,13.71
2018-06-21T19:05:37.420Z,13.73
2018-06-21T19:08:11.178Z,13.25
2018-06-21T19:10:44.660Z,13.20
2018-06-21T19:13:12.644Z,13.29
2018-06-21T19:15:40.713Z,13.16
2018-06-21T19:18:08.734Z,13.24
2018-06-21T19:20:36.823Z,13.07
2018-06-21T19:23:05.017Z,13.07
2018-06-21T19:25:33.078Z,13.00
2018-06-21T19:28:01.072Z,12.83
2018-06-21T19:30:29.090Z,12.74
2018-06-21T19:32:57.092Z,12.55
2018-06-21T19:35:25.089Z,12.53
2018-06-21T19:37:53.184Z,12.46
2018-06-21T19:40:21.184Z,12.41
2018-06-21T19:42:49.281Z,12.24
2018-06-21T19:45:17.301Z,12.28
2018-06-21T19:47:45.294Z,12.34
2018-06-21T19:50:13.324Z,12.32
2018-06-21T19:52:41.341Z,12.32
2018-06-21T19:55:09.314Z,12.29
2018-06-21T19:57:37.301Z,12.31
2018-06-21T20:00:05.288Z,12.29
2018-06-21T20:02:38.857Z,12.33
2018-06-21T20:05:06.879Z,12.35
2018-06-21T20:07:34.909Z,12.10
2018-06-21T20:10:02.934Z,12.23
2018-06-21T20:12:30.945Z,12.20
2018-06-21T20:14:58.936Z,12.20
2018-06-21T20:17:26.977Z,12.29
2018-06-21T20:20:00.442Z,12.37
2018-06-21T20:22:28.487Z,12.34
2018-06-21T20:24:56.743Z,12.37
2018-06-21T20:27:24.812Z,12.19
2018-06-21T20:29:53.113Z,12.13
2018-06-21T20:32:21.142Z,11.99
2018-06-21T20:34:49.213Z,12.05
2018-06-21T20:37:17.339Z,11.80
2018-06-21T20:39:46.058Z,11.64
2018-06-21T20:42:14.154Z,11.47
2018-06-21T20:44:42.147Z,11.55
2018-06-21T20:47:10.152Z,11.41
2018-06-21T20:49:38.265Z,11.29
2018-06-21T20:52:10.461Z,11.26
2018-06-21T20:54:38.478Z,11.26
2018-06-21T20:57:06.480Z,11.20
2018-06-21T20:59:34.629Z,11.19
2018-06-21T21:02:02.632Z,11.11
2018-06-21T21:04:41.172Z,11.24
2018-06-21T21:07:09.196Z,11.22
2018-06-21T21:09:37.239Z,11.35
2018-06-21T21:12:05.313Z,11.33
2018-06-21T21:14:33.356Z,11.24
2018-06-21T21:17:01.377Z,11.31
2018-06-21T21:19:29.382Z,11.34
2018-06-21T21:21:57.400Z,11.39
2018-06-21T21:24:25.395Z,11.43
2018-06-21T21:26:53.369Z,11.33
2018-06-21T21:29:21.407Z,11.33
2018-06-21T21:31:49.401Z,11.21
2018-06-21T21:34:17.489Z,11.15
2018-06-21T21:36:45.467Z,11.15
2018-06-21T21:39:13.477Z,11.07
2018-06-21T21:41:41.557Z,11.04
2018-06-21T21:44:10.174Z,11.25
2018-06-21T21:46:38.183Z,11.21
2018-06-21T21:49:06.255Z,11.21
2018-06-21T21:51:34.329Z,11.25
2018-06-21T21:54:02.374Z,11.29
2018-06-21T21:56:30.416Z,11.30
2018-06-21T21:58:58.445Z,11.21
2018-06-21T22:01:26.477Z,11.18
2018-06-21T22:03:54.850Z,11.24
2018-06-21T22:06:23.038Z,11.10
2018-06-21T22:08:51.140Z,11.09
2018-06-21T22:11:19.172Z,11.23
2018-06-21T22:13:47.213Z,11.09
2018-06-21T22:16:15.218Z,11.02
2018-06-21T22:18:43.266Z,10.92
2018-06-21T22:21:11.377Z,10.90
2018-06-21T22:23:39.416Z,10.94
2018-06-21T22:26:07.405Z,10.88
2018-06-21T22:28:35.468Z,10.92
2018-06-21T22:31:03.467Z,10.88
2018-06-21T22:33:31.448Z,10.90
2018-06-21T22:35:59.458Z,10.82
2018-06-21T22:38:27.441Z,10.89
2018-06-21T22:40:55.487Z,11.13
2018-06-21T22:43:23.549Z,11.15
2018-06-21T22:45:51.611Z,11.13
2018-06-21T22:48:19.645Z,10.95
2018-06-21T22:50:47.636Z,10.88
2018-06-21T22:53:15.633Z,10.76
2018-06-21T22:55:43.730Z,10.91
2018-06-21T22:58:11.814Z,10.91
2018-06-21T23:00:39.757Z,10.96
2018-06-21T23:03:08.184Z,10.89
2018-06-21T23:05:36.199Z,10.87
2018-06-21T23:08:04.221Z,10.71
2018-06-21T23:10:32.212Z,10.56
2018-06-21T23:13:00.276Z,10.62
2018-06-21T23:15:28.305Z,10.70
2018-06-21T23:17:56.357Z,10.51
2018-06-21T23:20:24.383Z,10.54
2018-06-21T23:22:52.392Z,10.65
2018-06-21T23:25:20.387Z,10.84
2018-06-21T23:27:48.362Z,10.99
2018-06-21T23:30:16.462Z,10.99
2018-06-21T23:32:44.489Z,10.97
2018-06-21T23:35:12.513Z,10.92
2018-06-21T23:37:40.484Z,10.98
2018-06-21T23:40:08.513Z,10.88
2018-06-21T23:42:36.742Z,10.73
2018-06-21T23:45:04.708Z,10.73
2018-06-21T23:47:32.712Z,10.69
2018-06-21T23:50:00.745Z,10.80
2018-06-21T23:52:28.752Z,10.82
2018-06-21T23:54:56.768Z,10.87
2018-06-21T23:57:25.828Z,10.76
2018-06-21T23:59:53.832Z,10.69
